EDDFLGSA

Guest
Details From EDDF - Frankfurt Am Main
To LGSA - Khania Souda
Flight Number -
Tags Generated
Created
Modified
Stats Distance 1,105 nm / 2,046 km
Max Altitude 0 ft / 0 m
Waypoints 7
Social Downloads 3
Likes 0
Share VATSIM

Download

Looking for another format? Having issues loading an existing format? Contact us
Advertisement - Login to hide

Notes

Generated

Route

EDDF RTT08 UNA RODON ELVAS SUD60 LGSA

ID Type Via Altitude Latitude Longitude Leg Dist Tot Dist Heading (true) Name
O EDDF APT - 0 ft / 0 m 50.02754˚ 8.53417˚ - 0 nm - -
RTT08 FIX - 0 ft / 0 m 47.56158˚ 12.00426˚ 201 nm 201 nm 136° / 138° -
UNA NDB - 0 ft / 0 m 44.52583˚ 15.77278˚ 240 nm 442 nm 138° / 141° UDBINA NDB
RODON FIX - 0 ft / 0 m 41.45833˚ 19.10000˚ 235 nm 677 nm 140° / 143° -
ELVAS FIX - 0 ft / 0 m 38.52472˚ 21.84194˚ 216 nm 894 nm 144° / 145° -
SUD60 FIX - 0 ft / 0 m 35.60091˚ 24.09891˚ 206 nm 1100 nm 148° / 149° -
O LGSA APT - 0 ft / 0 m 35.53708˚ 24.13399˚ 4 nm 1104 nm 156° / 156° -

Altitude Profile

Advertisement - Login to hide

Weather


0- 5 10 15 20 25 30 35+ Temperature / ° C

Clouds and Precipitation
Forecast for 2018-05-28 00:00 UTC. Updated 9 hours ago

Ground ~20,000 ft ~40,000 ft Winds

EDDF

Details ICAO EDDF (FRA)
Name Frankfurt am Main
Region Germany - Civil
Timezone Europe/Berlin (UTC+2.0)
Stats Elevation 355 ft / 108 m (AMSL)
Location 50.032604° 8.540641°
Runways 4
Magnetic Variation 2.401° E

METAR

Not found

TAF

TAF EDDF 272300Z 2800/2906 05005KT 9999 FEW045

Decode

Departure Runways

ID Width Length Bearing (true) Bearing (mag) Surface Threshold Offset Overrun Length
07C 197 ft / 60 m 13,091 ft / 3,990 m 69.57° 67.17° Asphalt 0 ft / 0 m 230 ft / 70 m
07L 148 ft / 45 m 9,164 ft / 2,793 m 69.54° 67.14° Concrete 0 ft / 0 m 328 ft / 100 m
07R 148 ft / 45 m 13,094 ft / 3,991 m 69.57° 67.17° Asphalt 0 ft / 0 m 230 ft / 70 m
18 148 ft / 45 m 13,056 ft / 3,980 m 179.84° 177.44° Concrete 0 ft / 0 m 49 ft / 15 m
25C 197 ft / 60 m 13,091 ft / 3,990 m 249.61° 247.21° Asphalt 0 ft / 0 m 1,152 ft / 351 m
25L 148 ft / 45 m 13,094 ft / 3,991 m 249.61° 247.21° Asphalt 0 ft / 0 m 2,051 ft / 625 m
25R 148 ft / 45 m 9,164 ft / 2,793 m 249.57° 247.17° Concrete 0 ft / 0 m 328 ft / 100 m
36 148 ft / 45 m 13,056 ft / 3,980 m 359.84° 357.44° Concrete 0 ft / 0 m 190 ft / 58 m

LGSA

Details ICAO LGSA (CHQ)
Name Khania Souda
Region Greece
Timezone Europe/Athens (UTC+3.0)
Stats Elevation 490 ft / 149 m (AMSL)
Location 35.531592° 24.151184°
Runways 1
Magnetic Variation 4.325° E

METAR

Not found

TAF

TAF LGSA 272300Z 2800/2824 34016KT 9999 SCT018 BECMG 2815/2817 VRB05KT PROB30 TEMPO 2809/2812 5000 SHRA SCT016 FEW018CB BKN070

Decode

Destination Runways

ID Width Length Bearing (true) Bearing (mag) Surface Threshold Offset Overrun Length
11 148 ft / 45 m 10,967 ft / 3,343 m 111.40° 107.07° Asphalt 0 ft / 0 m 735 ft / 224 m
29 148 ft / 45 m 10,967 ft / 3,343 m 291.42° 287.09° Asphalt 0 ft / 0 m 900 ft / 274 m